Time;durP1;ratioP1;P1;durP2;ratioP2;P2;SDS_P1;SDS_P2;PMS_P1;PMS_P2;Temp;Humidity;BMP_temperature;BMP_pressure;BME280_temperature;BME280_humidity;BME280_pressure;Samples;Min_cycle;Max_cycle;Signal;HPM_P1;HPM_P2
2022/06/06 00:01:00;;;;;;;2.80;2.60;;;16.50;99.90;;;;;;486445;244;29296;-71
2022/06/06 00:03:01;;;;;;;2.90;2.70;;;16.50;99.90;;;;;;486425;244;29304;-72
2022/06/06 00:05:02;;;;;;;2.73;2.53;;;16.50;99.90;;;;;;486447;244;29401;-74
2022/06/06 00:07:04;;;;;;;3.33;3.03;;;16.50;99.90;;;;;;486454;244;29345;-72
2022/06/06 00:09:05;;;;;;;3.03;2.83;;;16.50;99.90;;;;;;486431;244;28938;-72
2022/06/06 00:11:08;;;;;;;3.20;3.00;;;16.50;99.90;;;;;;486429;241;28819;-73
2022/06/06 00:13:07;;;;;;;3.07;2.87;;;16.50;99.90;;;;;;486325;244;28851;-72
2022/06/06 00:15:09;;;;;;;3.47;3.17;;;16.50;99.90;;;;;;486431;244;28832;-72
2022/06/06 00:17:10;;;;;;;3.13;2.87;;;16.50;99.90;;;;;;486447;244;28814;-72
2022/06/06 00:19:11;;;;;;;3.80;3.27;;;16.50;99.90;;;;;;486441;244;28953;-73
2022/06/06 00:21:12;;;;;;;2.90;2.70;;;16.50;99.90;;;;;;486418;244;28907;-72
2022/06/06 00:23:14;;;;;;;2.77;2.57;;;16.50;99.90;;;;;;486430;244;28858;-72
2022/06/06 00:25:15;;;;;;;3.13;2.90;;;16.50;99.90;;;;;;486446;244;28858;-72
2022/06/06 00:27:16;;;;;;;2.83;2.63;;;16.50;99.90;;;;;;486438;244;29241;-71
2022/06/06 00:29:17;;;;;;;3.17;2.87;;;16.50;99.90;;;;;;486446;244;29302;-73
2022/06/06 00:35:58;;;;;;;3.77;3.17;;;16.40;99.90;;;;;;486410;244;28871;-72
2022/06/06 00:38:00;;;;;;;3.13;2.93;;;16.40;99.90;;;;;;486425;244;29391;-73
2022/06/06 00:40:04;;;;;;;3.07;2.87;;;16.40;99.90;;;;;;486455;244;29450;-72
2022/06/06 00:42:05;;;;;;;2.93;2.73;;;16.40;99.90;;;;;;486444;244;29259;-72
2022/06/06 00:44:06;;;;;;;3.00;2.80;;;16.40;99.90;;;;;;486418;244;29327;-72
2022/06/06 00:46:07;;;;;;;3.47;3.00;;;16.50;99.90;;;;;;486467;244;28804;-72
2022/06/06 00:48:09;;;;;;;3.83;2.80;;;16.50;99.90;;;;;;486453;244;28898;-72
2022/06/06 00:50:10;;;;;;;3.03;2.77;;;16.50;99.90;;;;;;486439;244;28836;-75
2022/06/06 00:52:11;;;;;;;3.50;3.20;;;16.50;99.90;;;;;;486404;244;28805;-72
2022/06/06 00:54:12;;;;;;;3.50;3.30;;;16.50;99.90;;;;;;486370;244;28934;-72
2022/06/06 00:56:14;;;;;;;3.10;2.90;;;16.40;99.90;;;;;;486340;244;28860;-72
2022/06/06 00:58:15;;;;;;;3.17;2.97;;;16.40;99.90;;;;;;486358;244;28878;-72
2022/06/06 01:00:16;;;;;;;3.37;3.07;;;16.40;99.90;;;;;;486409;244;28840;-72
2022/06/06 01:02:17;;;;;;;3.23;2.93;;;16.40;99.90;;;;;;486391;244;29414;-72
2022/06/06 01:04:19;;;;;;;3.37;2.87;;;16.40;99.90;;;;;;486396;244;29418;-74
2022/06/06 01:06:22;;;;;;;3.20;3.00;;;16.30;99.90;;;;;;486392;244;29355;-72
2022/06/06 01:08:21;;;;;;;2.90;2.70;;;16.30;99.90;;;;;;486288;244;28923;-72
2022/06/06 01:10:22;;;;;;;3.10;2.90;;;16.20;99.90;;;;;;486453;244;28844;-72
2022/06/06 01:12:24;;;;;;;3.43;3.13;;;16.20;99.90;;;;;;486453;244;28861;-72
2022/06/06 01:14:25;;;;;;;4.20;3.80;;;16.10;99.90;;;;;;486411;244;28875;-72
2022/06/06 01:16:27;;;;;;;3.90;3.53;;;16.10;99.90;;;;;;486425;244;28891;-72
2022/06/06 01:18:27;;;;;;;3.60;3.30;;;16.00;99.90;;;;;;486406;244;28974;-72
2022/06/06 01:20:29;;;;;;;6.53;4.23;;;15.90;99.90;;;;;;486449;244;29217;-75
2022/06/06 01:22:30;;;;;;;4.33;4.00;;;15.90;99.90;;;;;;486430;244;28907;-72
2022/06/06 01:24:31;;;;;;;3.90;3.60;;;15.90;99.90;;;;;;486430;244;28837;-72
2022/06/06 01:26:32;;;;;;;3.40;3.10;;;15.80;99.90;;;;;;486433;244;29326;-71
2022/06/06 01:28:34;;;;;;;3.90;3.37;;;15.70;99.90;;;;;;486412;244;28883;-72
2022/06/06 01:30:35;;;;;;;4.00;3.70;;;15.70;99.90;;;;;;486445;244;28853;-73
2022/06/06 01:32:36;;;;;;;4.00;3.53;;;15.60;99.90;;;;;;486421;243;29256;-72
2022/06/06 01:34:37;;;;;;;3.80;3.50;;;15.50;99.90;;;;;;486437;244;29467;-72
2022/06/06 01:36:39;;;;;;;3.70;3.40;;;15.50;99.90;;;;;;486408;244;29264;-71
2022/06/06 01:38:40;;;;;;;3.60;3.30;;;15.50;99.90;;;;;;486389;244;29424;-72
2022/06/06 01:40:41;;;;;;;3.67;3.37;;;15.60;99.90;;;;;;486445;244;28852;-74
2022/06/06 01:42:42;;;;;;;3.70;2.87;;;15.60;99.90;;;;;;486395;244;28828;-71
2022/06/06 01:44:44;;;;;;;3.40;3.20;;;15.70;99.90;;;;;;486427;244;28852;-72
2022/06/06 01:46:45;;;;;;;3.43;3.10;;;15.70;99.90;;;;;;486442;244;28809;-72
2022/06/06 01:48:46;;;;;;;3.83;3.40;;;15.70;99.90;;;;;;486453;244;28871;-72
2022/06/06 01:50:47;;;;;;;4.57;4.17;;;15.70;99.90;;;;;;486460;244;29220;-75
2022/06/06 01:52:49;;;;;;;6.20;4.40;;;15.70;99.90;;;;;;486463;244;28887;-72
2022/06/06 01:54:50;;;;;;;4.00;3.70;;;15.70;99.90;;;;;;486461;244;28867;-72
2022/06/06 01:56:52;;;;;;;3.77;3.43;;;15.80;99.90;;;;;;486464;244;29355;-71
2022/06/06 01:58:53;;;;;;;4.40;4.00;;;15.80;99.90;;;;;;486464;244;29300;-72
2022/06/06 02:00:54;;;;;;;4.07;3.73;;;15.80;99.90;;;;;;486483;244;29342;-74
2022/06/06 02:02:55;;;;;;;3.57;3.27;;;15.90;99.90;;;;;;486481;244;28946;-72
2022/06/06 02:04:56;;;;;;;3.93;3.57;;;15.90;99.90;;;;;;486477;244;28838;-73
2022/06/06 02:06:58;;;;;;;3.87;3.47;;;15.80;99.90;;;;;;486441;244;28857;-71
2022/06/06 02:08:59;;;;;;;3.80;3.50;;;15.90;99.90;;;;;;486455;244;28922;-72
2022/06/06 02:11:00;;;;;;;6.17;3.43;;;15.90;99.90;;;;;;486475;244;28848;-73
2022/06/06 02:13:01;;;;;;;3.57;3.27;;;15.90;99.90;;;;;;486433;244;28906;-72
2022/06/06 02:15:03;;;;;;;4.07;3.70;;;15.90;99.90;;;;;;486422;244;28913;-72
2022/06/06 02:17:06;;;;;;;3.40;3.10;;;15.90;99.90;;;;;;486445;244;29386;-72
2022/06/06 02:19:05;;;;;;;3.43;3.23;;;15.90;99.90;;;;;;486306;244;29298;-72
2022/06/06 02:21:07;;;;;;;4.33;3.93;;;15.90;99.90;;;;;;486404;244;29362;-72
2022/06/06 02:23:08;;;;;;;3.50;3.13;;;16.00;99.90;;;;;;486376;244;28821;-72
2022/06/06 02:25:09;;;;;;;4.70;4.30;;;16.00;99.90;;;;;;486419;244;28868;-72
2022/06/06 02:27:10;;;;;;;4.60;3.70;;;16.00;99.90;;;;;;486440;244;28804;-72
2022/06/06 02:29:11;;;;;;;5.40;3.90;;;16.00;99.90;;;;;;486446;244;28909;-72
2022/06/06 02:31:13;;;;;;;4.57;4.13;;;16.00;99.90;;;;;;486476;244;28839;-75
2022/06/06 02:33:14;;;;;;;4.30;4.00;;;16.00;99.90;;;;;;486438;243;28971;-72
2022/06/06 02:35:16;;;;;;;4.10;3.80;;;16.00;99.90;;;;;;486435;244;28932;-72
2022/06/06 02:37:16;;;;;;;4.03;3.60;;;16.00;99.90;;;;;;486431;244;28887;-72
2022/06/06 02:39:18;;;;;;;4.67;4.27;;;16.00;99.90;;;;;;486447;244;29385;-71
2022/06/06 02:41:19;;;;;;;7.00;4.47;;;16.00;99.90;;;;;;486438;244;29394;-77
2022/06/06 02:43:21;;;;;;;4.50;4.10;;;15.90;99.90;;;;;;486464;244;29282;-72
2022/06/06 02:45:21;;;;;;;4.30;3.90;;;15.90;99.90;;;;;;486424;244;29320;-72
2022/06/06 02:47:23;;;;;;;5.87;4.07;;;15.90;99.90;;;;;;486455;244;28889;-72
2022/06/06 02:49:24;;;;;;;4.73;4.40;;;15.90;99.90;;;;;;486450;244;28950;-72
2022/06/06 02:51:25;;;;;;;4.93;4.50;;;15.90;99.90;;;;;;486464;244;28855;-74
2022/06/06 02:53:26;;;;;;;5.77;5.27;;;15.90;99.90;;;;;;486417;244;28795;-72
2022/06/06 02:55:28;;;;;;;8.60;5.40;;;15.90;99.90;;;;;;486457;244;28954;-72
2022/06/06 02:57:29;;;;;;;7.50;5.10;;;15.90;99.90;;;;;;486390;244;28818;-72
2022/06/06 02:59:30;;;;;;;4.90;4.50;;;15.90;99.90;;;;;;486418;244;28829;-72
2022/06/06 03:01:31;;;;;;;5.43;4.90;;;15.90;99.90;;;;;;486442;244;28923;-74
2022/06/06 03:03:33;;;;;;;5.53;5.00;;;15.90;99.90;;;;;;486433;244;29292;-71
2022/06/06 03:05:34;;;;;;;6.90;5.60;;;15.90;99.90;;;;;;486438;244;29431;-73
2022/06/06 03:07:35;;;;;;;5.57;4.90;;;15.90;99.90;;;;;;486421;243;29280;-72
2022/06/06 03:09:37;;;;;;;6.60;4.97;;;15.90;99.90;;;;;;486447;244;29418;-72
2022/06/06 03:11:38;;;;;;;6.37;5.20;;;15.80;99.90;;;;;;486449;244;28837;-72
2022/06/06 03:13:39;;;;;;;5.17;4.70;;;15.80;99.90;;;;;;486442;244;28817;-72
2022/06/06 03:15:40;;;;;;;5.10;4.60;;;15.80;99.90;;;;;;486447;244;28949;-72
2022/06/06 03:22:20;;;;;;;5.40;4.90;;;15.70;99.90;;;;;;486460;244;29313;-72
2022/06/06 03:24:22;;;;;;;6.13;4.43;;;15.70;99.90;;;;;;486466;244;28836;-71
2022/06/06 03:26:23;;;;;;;5.50;5.00;;;15.80;99.90;;;;;;486461;244;28881;-72
2022/06/06 03:28:25;;;;;;;6.07;4.90;;;15.70;99.90;;;;;;486453;244;28919;-73
2022/06/06 03:30:25;;;;;;;5.03;4.63;;;15.80;99.90;;;;;;486448;244;28813;-73
2022/06/06 03:32:27;;;;;;;4.80;4.40;;;15.80;99.90;;;;;;486473;244;28915;-72
2022/06/06 03:34:28;;;;;;;4.87;4.47;;;15.80;99.90;;;;;;486454;244;28847;-71
2022/06/06 03:36:29;;;;;;;5.40;4.80;;;15.70;99.90;;;;;;486475;244;28887;-72
2022/06/06 03:38:30;;;;;;;4.33;4.03;;;15.80;99.90;;;;;;486474;244;28932;-72
2022/06/06 03:40:32;;;;;;;5.63;5.10;;;15.80;99.90;;;;;;486459;244;28822;-73
2022/06/06 03:42:33;;;;;;;5.17;4.70;;;15.70;99.90;;;;;;486454;244;29360;-72
2022/06/06 03:44:34;;;;;;;5.97;5.43;;;15.70;99.90;;;;;;486452;244;30201;-72
2022/06/06 03:46:35;;;;;;;5.93;5.43;;;15.70;99.90;;;;;;486452;244;29348;-72
2022/06/06 03:48:37;;;;;;;5.70;5.20;;;15.70;99.90;;;;;;486465;244;28923;-73
2022/06/06 03:50:38;;;;;;;5.90;5.33;;;15.70;99.90;;;;;;486416;244;28792;-71
2022/06/06 03:52:39;;;;;;;4.43;4.07;;;15.70;99.90;;;;;;486386;244;28848;-72
2022/06/06 03:54:40;;;;;;;5.33;4.83;;;15.80;99.90;;;;;;486419;244;28882;-71
2022/06/06 03:56:42;;;;;;;5.10;4.70;;;15.80;99.90;;;;;;486435;244;28824;-72
2022/06/06 03:58:43;;;;;;;4.10;3.80;;;15.80;99.90;;;;;;486434;244;28935;-73
2022/06/06 04:00:44;;;;;;;4.93;4.47;;;15.80;99.90;;;;;;486430;244;28966;-72
2022/06/06 04:02:46;;;;;;;5.63;4.67;;;15.80;99.90;;;;;;486438;244;28865;-73
2022/06/06 04:04:47;;;;;;;5.80;5.13;;;15.80;99.90;;;;;;486419;244;28890;-72
2022/06/06 04:06:48;;;;;;;4.23;3.93;;;15.80;99.90;;;;;;486433;244;29292;-72
2022/06/06 04:08:49;;;;;;;4.20;3.83;;;15.80;99.90;;;;;;486443;244;29411;-73
2022/06/06 04:10:51;;;;;;;4.87;4.40;;;15.90;99.90;;;;;;486445;244;29378;-72
2022/06/06 04:12:52;;;;;;;4.23;3.93;;;15.90;99.90;;;;;;486450;244;28859;-72
2022/06/06 04:14:53;;;;;;;5.40;4.40;;;16.00;99.90;;;;;;486431;244;28799;-72
2022/06/06 04:16:55;;;;;;;6.53;5.00;;;15.90;99.90;;;;;;486429;244;28911;-72
2022/06/06 04:18:56;;;;;;;5.87;4.87;;;15.80;99.90;;;;;;486463;244;28859;-74
2022/06/06 04:20:57;;;;;;;5.27;4.77;;;15.80;99.90;;;;;;486448;244;28817;-71
2022/06/06 04:22:58;;;;;;;5.20;4.70;;;15.80;99.90;;;;;;486454;244;28876;-73
2022/06/06 04:24:59;;;;;;;5.73;4.90;;;15.80;99.90;;;;;;486414;244;28823;-72
2022/06/06 04:27:01;;;;;;;8.37;4.33;;;15.80;99.90;;;;;;486425;244;28841;-72
2022/06/06 04:29:03;;;;;;;5.63;5.13;;;15.80;99.90;;;;;;486437;244;28845;-74
2022/06/06 04:31:03;;;;;;;5.40;5.00;;;15.70;99.90;;;;;;486331;244;29429;-72
2022/06/06 04:33:04;;;;;;;6.43;4.80;;;15.70;99.90;;;;;;486430;244;29457;-72
2022/06/06 04:35:06;;;;;;;5.60;5.10;;;15.80;99.90;;;;;;486443;244;29280;-72
2022/06/06 04:37:07;;;;;;;4.67;4.27;;;15.80;99.90;;;;;;486409;244;29240;-72
2022/06/06 04:39:08;;;;;;;4.43;4.13;;;15.80;99.90;;;;;;486449;244;28853;-73
2022/06/06 04:41:10;;;;;;;4.50;4.10;;;15.80;99.90;;;;;;486443;244;28810;-72
2022/06/06 04:43:11;;;;;;;4.30;4.00;;;15.70;99.90;;;;;;486421;244;28836;-73
2022/06/06 04:45:12;;;;;;;4.43;4.10;;;15.80;99.90;;;;;;486417;244;28809;-72
2022/06/06 04:47:13;;;;;;;5.87;5.27;;;15.80;99.90;;;;;;486432;244;28794;-72
2022/06/06 04:49:14;;;;;;;5.60;5.10;;;15.80;99.90;;;;;;486468;244;28885;-73
2022/06/06 04:51:16;;;;;;;4.77;4.37;;;15.90;99.90;;;;;;486456;244;28889;-72
2022/06/06 04:53:17;;;;;;;5.20;4.70;;;15.90;99.90;;;;;;486435;244;28836;-71
2022/06/06 04:55:18;;;;;;;4.87;4.47;;;15.90;99.90;;;;;;486419;244;29469;-72
2022/06/06 04:57:19;;;;;;;5.10;4.70;;;15.90;99.90;;;;;;486466;244;29245;-72
2022/06/06 04:59:21;;;;;;;4.63;4.23;;;15.90;99.90;;;;;;486461;243;29447;-72
2022/06/06 05:01:23;;;;;;;4.30;4.00;;;15.90;99.90;;;;;;486463;244;29273;-72
2022/06/06 05:03:23;;;;;;;4.57;4.17;;;15.90;99.90;;;;;;486399;244;28959;-73
2022/06/06 05:05:24;;;;;;;6.53;4.77;;;15.80;99.90;;;;;;486429;243;28916;-72
2022/06/06 05:07:26;;;;;;;6.20;5.60;;;15.70;99.90;;;;;;486450;244;28919;-72
2022/06/06 05:09:27;;;;;;;6.60;6.00;;;15.70;99.90;;;;;;486433;244;28841;-74
2022/06/06 05:11:28;;;;;;;5.13;4.73;;;15.70;99.90;;;;;;486439;243;28802;-71
2022/06/06 05:13:29;;;;;;;5.43;4.93;;;15.80;99.90;;;;;;486426;244;28864;-72
2022/06/06 05:15:31;;;;;;;5.87;5.47;;;15.80;99.90;;;;;;486442;244;28827;-72
2022/06/06 05:17:32;;;;;;;6.10;5.50;;;15.80;99.90;;;;;;486435;244;28856;-72
2022/06/06 05:19:33;;;;;;;10.03;5.47;;;15.80;99.90;;;;;;486427;244;28862;-74
2022/06/06 05:21:34;;;;;;;4.73;4.30;;;15.80;99.90;;;;;;486437;244;29320;-72
2022/06/06 05:23:36;;;;;;;7.10;4.90;;;15.80;99.90;;;;;;486404;244;29342;-71
2022/06/06 05:25:37;;;;;;;7.40;5.00;;;15.70;99.90;;;;;;486430;244;29250;-72
2022/06/06 05:27:38;;;;;;;6.10;5.60;;;15.70;99.90;;;;;;486456;244;28958;-72
2022/06/06 05:29:39;;;;;;;5.13;4.73;;;15.70;99.90;;;;;;486433;244;28865;-73
2022/06/06 05:31:41;;;;;;;6.37;5.57;;;15.80;99.90;;;;;;486441;244;28808;-72
2022/06/06 05:33:42;;;;;;;6.13;5.57;;;15.80;99.90;;;;;;486430;244;28929;-72
2022/06/06 05:35:45;;;;;;;5.63;5.03;;;15.80;99.90;;;;;;486392;244;28843;-71
2022/06/06 05:37:44;;;;;;;5.43;5.03;;;15.80;99.90;;;;;;486311;244;28895;-71
2022/06/06 05:39:46;;;;;;;5.70;5.20;;;15.90;99.90;;;;;;486413;244;28950;-72
2022/06/06 05:41:47;;;;;;;5.63;5.10;;;16.00;99.90;;;;;;486433;244;28941;-72
2022/06/06 05:43:48;;;;;;;5.00;4.60;;;16.00;99.90;;;;;;486412;244;29394;-72
2022/06/06 05:45:49;;;;;;;4.40;4.00;;;16.00;99.90;;;;;;486416;244;30058;-72
2022/06/06 05:47:51;;;;;;;5.37;3.90;;;16.00;99.90;;;;;;486437;244;29271;-72
2022/06/06 05:49:52;;;;;;;4.87;4.47;;;16.10;99.90;;;;;;486447;244;29320;-72
2022/06/06 05:51:53;;;;;;;5.00;4.60;;;16.10;99.90;;;;;;486420;244;28819;-72
2022/06/06 05:53:54;;;;;;;5.00;4.33;;;16.10;99.90;;;;;;486422;244;28851;-72
2022/06/06 05:55:56;;;;;;;5.83;4.63;;;16.20;99.90;;;;;;486421;244;28913;-72
2022/06/06 05:57:57;;;;;;;4.20;3.80;;;16.30;99.90;;;;;;486455;244;28839;-72
2022/06/06 05:59:58;;;;;;;4.50;4.10;;;16.40;99.90;;;;;;486445;244;28840;-75
2022/06/06 06:01:59;;;;;;;5.03;4.63;;;16.60;99.90;;;;;;486421;244;28808;-72
2022/06/06 06:04:01;;;;;;;4.37;4.03;;;16.50;99.90;;;;;;486424;244;28852;-72
2022/06/06 06:06:02;;;;;;;5.60;4.57;;;16.50;99.90;;;;;;486416;244;28891;-72
2022/06/06 06:08:03;;;;;;;4.80;4.40;;;16.50;99.90;;;;;;486433;244;29339;-72
2022/06/06 06:10:04;;;;;;;8.63;5.23;;;16.40;99.90;;;;;;486458;244;29328;-73
2022/06/06 06:12:06;;;;;;;5.30;4.60;;;16.40;99.90;;;;;;486463;244;29275;-72
2022/06/06 06:14:07;;;;;;;4.63;4.23;;;16.50;99.90;;;;;;486453;244;29330;-72
2022/06/06 06:16:08;;;;;;;5.27;4.87;;;16.60;99.90;;;;;;486453;244;28813;-72
2022/06/06 06:18:09;;;;;;;4.80;4.40;;;16.60;99.90;;;;;;486418;244;28954;-72
2022/06/06 06:20:11;;;;;;;4.90;4.50;;;16.60;99.90;;;;;;486456;244;28863;-74
2022/06/06 06:22:12;;;;;;;4.97;4.57;;;16.60;99.90;;;;;;486420;244;28807;-72
2022/06/06 06:24:13;;;;;;;5.10;4.70;;;16.70;99.90;;;;;;486427;244;28843;-73
2022/06/06 06:26:14;;;;;;;4.90;4.50;;;16.60;99.90;;;;;;486421;244;28867;-72
2022/06/06 06:28:16;;;;;;;4.73;4.43;;;16.40;99.90;;;;;;486401;244;28938;-72
2022/06/06 06:30:17;;;;;;;4.57;4.20;;;16.40;99.90;;;;;;486432;244;28856;-74
2022/06/06 06:32:18;;;;;;;4.93;4.43;;;16.40;99.90;;;;;;486453;243;29380;-72
2022/06/06 06:34:19;;;;;;;4.47;4.17;;;16.40;99.90;;;;;;486443;244;29317;-72
2022/06/06 06:36:21;;;;;;;4.23;3.90;;;16.50;99.90;;;;;;486434;244;29373;-72
2022/06/06 06:38:22;;;;;;;3.93;3.60;;;16.60;99.90;;;;;;486443;244;28884;-72
2022/06/06 06:40:23;;;;;;;5.00;4.50;;;16.60;99.90;;;;;;486460;244;28857;-72
2022/06/06 06:42:24;;;;;;;4.20;3.90;;;16.50;99.90;;;;;;486463;244;28929;-72
2022/06/06 06:44:27;;;;;;;4.37;3.97;;;16.40;99.90;;;;;;486434;244;28844;-73
2022/06/06 06:46:27;;;;;;;4.23;3.93;;;16.30;99.90;;;;;;486347;244;28790;-72
2022/06/06 06:48:28;;;;;;;4.30;4.00;;;16.30;99.90;;;;;;486432;244;28927;-73
2022/06/06 06:50:29;;;;;;;4.27;3.97;;;16.30;99.90;;;;;;486460;244;28836;-74
2022/06/06 06:52:31;;;;;;;4.17;3.80;;;16.40;99.90;;;;;;486457;244;28813;-72
2022/06/06 06:54:32;;;;;;;4.00;3.70;;;16.60;99.90;;;;;;486452;244;28848;-73
2022/06/06 06:56:33;;;;;;;5.10;4.70;;;16.70;99.90;;;;;;486426;244;29270;-71
2022/06/06 06:58:34;;;;;;;4.20;3.90;;;16.80;99.90;;;;;;486448;244;29591;-72
2022/06/06 07:00:36;;;;;;;4.00;3.60;;;17.20;99.90;;;;;;486441;244;30046;-72
2022/06/06 07:09:36;;;;;;;3.83;3.53;;;17.80;99.90;;;;;;486446;244;29292;-73
2022/06/06 07:11:37;;;;;;;4.20;3.90;;;18.00;99.90;;;;;;486450;244;29312;-72
2022/06/06 07:13:38;;;;;;;4.90;4.37;;;18.00;99.90;;;;;;486428;244;29483;-73
2022/06/06 07:15:39;;;;;;;3.90;3.60;;;18.10;99.90;;;;;;486468;244;28908;-72
2022/06/06 07:17:41;;;;;;;5.90;4.20;;;18.20;99.90;;;;;;486472;244;28827;-72
2022/06/06 07:19:42;;;;;;;5.40;3.80;;;18.10;99.90;;;;;;486452;244;28809;-72
2022/06/06 07:21:43;;;;;;;4.70;4.30;;;18.20;99.90;;;;;;486472;244;28839;-72
2022/06/06 07:23:48;;;;;;;4.77;4.07;;;18.30;99.90;;;;;;486492;244;29191;-74
2022/06/06 07:25:46;;;;;;;9.60;4.10;;;18.00;99.90;;;;;;486274;244;28825;-72
2022/06/06 07:27:47;;;;;;;7.40;4.57;;;17.60;99.90;;;;;;486481;244;28948;-72
2022/06/06 07:29:48;;;;;;;5.50;4.47;;;17.40;99.90;;;;;;486476;244;28811;-72
2022/06/06 07:31:49;;;;;;;4.47;4.07;;;17.30;99.90;;;;;;486463;244;28919;-73
2022/06/06 07:33:51;;;;;;;4.10;3.80;;;17.60;99.90;;;;;;486493;244;29315;-74
2022/06/06 07:35:52;;;;;;;4.47;3.73;;;18.00;99.90;;;;;;486473;244;29336;-72
2022/06/06 07:37:53;;;;;;;3.70;3.50;;;18.10;99.90;;;;;;486452;244;29395;-73
2022/06/06 07:39:54;;;;;;;4.30;3.90;;;18.10;99.90;;;;;;486444;244;28891;-73
2022/06/06 07:41:56;;;;;;;3.80;3.60;;;18.00;99.90;;;;;;486445;244;28886;-73
2022/06/06 07:43:57;;;;;;;4.10;3.80;;;17.60;99.90;;;;;;486448;244;28848;-74
2022/06/06 07:45:58;;;;;;;4.03;3.73;;;17.60;99.90;;;;;;486453;244;28801;-72
2022/06/06 07:47:59;;;;;;;4.23;3.83;;;17.60;99.90;;;;;;486468;244;28923;-73
2022/06/06 07:50:01;;;;;;;4.20;3.83;;;17.90;99.90;;;;;;486437;244;28813;-72
2022/06/06 07:52:02;;;;;;;4.40;4.00;;;18.00;99.90;;;;;;486443;244;28958;-72
2022/06/06 07:54:03;;;;;;;7.30;4.20;;;18.30;99.90;;;;;;486451;243;28833;-74
2022/06/06 07:56:04;;;;;;;4.70;4.30;;;18.50;99.90;;;;;;486444;244;28885;-72
2022/06/06 07:58:08;;;;;;;7.03;4.43;;;18.60;99.90;;;;;;486399;244;29359;-73
2022/06/06 08:00:07;;;;;;;5.47;4.10;;;18.60;99.90;;;;;;486236;244;29403;-73
2022/06/06 08:02:10;;;;;;;4.43;4.13;;;18.70;99.90;;;;;;486251;244;29332;-73
2022/06/06 08:04:09;;;;;;;4.60;4.10;;;18.60;99.90;;;;;;486316;244;29409;-74
2022/06/06 08:06:11;;;;;;;5.30;4.07;;;18.70;99.90;;;;;;486437;244;28812;-72
2022/06/06 08:08:12;;;;;;;3.80;3.53;;;18.60;99.90;;;;;;486430;244;28856;-73
2022/06/06 08:10:13;;;;;;;4.00;3.50;;;18.50;99.90;;;;;;486398;244;29254;-72
2022/06/06 08:12:14;;;;;;;3.80;3.50;;;18.40;99.90;;;;;;486411;244;29333;-72
2022/06/06 08:14:17;;;;;;;4.27;3.83;;;18.40;99.90;;;;;;486467;244;29324;-75
2022/06/06 08:16:17;;;;;;;3.97;3.23;;;18.50;99.90;;;;;;486435;244;29255;-72
2022/06/06 08:18:18;;;;;;;3.33;3.13;;;18.50;99.90;;;;;;486445;244;28841;-73
2022/06/06 08:20:19;;;;;;;4.73;3.60;;;18.40;99.90;;;;;;486430;244;28794;-72
2022/06/06 08:22:21;;;;;;;3.73;3.43;;;18.30;99.90;;;;;;486440;242;28840;-72
2022/06/06 08:24:22;;;;;;;3.67;3.37;;;18.20;99.90;;;;;;486442;244;28865;-74
2022/06/06 08:26:23;;;;;;;3.63;3.33;;;18.10;99.90;;;;;;486459;244;28910;-72
2022/06/06 08:28:24;;;;;;;3.70;3.40;;;18.20;99.90;;;;;;486443;244;28947;-72
2022/06/06 08:30:26;;;;;;;4.03;3.20;;;18.10;99.90;;;;;;486445;244;28801;-73
2022/06/06 08:32:29;;;;;;;3.10;2.90;;;18.30;99.90;;;;;;486447;244;28811;-73
2022/06/06 08:34:28;;;;;;;3.70;3.50;;;18.40;99.90;;;;;;486289;244;29242;-75
2022/06/06 08:36:29;;;;;;;3.17;2.97;;;18.30;99.90;;;;;;486429;244;29253;-72
2022/06/06 08:38:31;;;;;;;3.70;3.00;;;18.30;99.90;;;;;;486444;244;29338;-73
2022/06/06 08:40:32;;;;;;;3.27;2.97;;;18.60;99.90;;;;;;486397;244;29395;-73
2022/06/06 08:42:33;;;;;;;3.47;3.17;;;18.90;99.90;;;;;;486433;244;28912;-73
2022/06/06 08:44:34;;;;;;;3.27;3.07;;;19.00;99.90;;;;;;486462;243;28851;-72
2022/06/06 08:46:36;;;;;;;3.10;2.80;;;19.10;99.90;;;;;;486451;244;28796;-72
2022/06/06 08:48:38;;;;;;;3.23;3.03;;;19.30;99.90;;;;;;486432;244;28929;-73
2022/06/06 08:50:47;;;;;;;3.43;3.07;;;19.60;99.90;;;;;;486358;244;28926;-72
2022/06/06 08:52:48;;;;;;;3.10;2.90;;;19.80;99.90;;;;;;486462;244;28911;-75
2022/06/06 08:54:50;;;;;;;3.10;2.90;;;19.80;99.90;;;;;;486469;244;28909;-73
2022/06/06 08:56:51;;;;;;;3.43;3.13;;;19.80;99.90;;;;;;486467;244;29362;-72
2022/06/06 08:58:52;;;;;;;3.43;3.23;;;19.80;99.90;;;;;;486457;244;29257;-72
2022/06/06 09:00:55;;;;;;;4.77;2.87;;;19.80;99.90;;;;;;486489;244;29327;-73
2022/06/06 09:02:55;;;;;;;3.13;2.90;;;19.70;99.90;;;;;;486359;244;28994;-74
2022/06/06 09:04:56;;;;;;;4.57;3.20;;;19.70;99.90;;;;;;486477;244;28898;-72
2022/06/06 09:06:57;;;;;;;3.00;2.80;;;19.60;99.90;;;;;;486476;244;28836;-72
2022/06/06 09:08:58;;;;;;;3.07;2.87;;;19.50;99.90;;;;;;486464;244;28821;-73
2022/06/06 09:11:00;;;;;;;2.97;2.50;;;19.60;99.90;;;;;;486434;244;28844;-72
2022/06/06 09:13:01;;;;;;;2.63;2.50;;;19.60;99.90;;;;;;486463;244;29196;-72
2022/06/06 09:15:04;;;;;;;3.40;2.80;;;19.40;99.90;;;;;;486430;244;28912;-72
2022/06/06 09:17:03;;;;;;;2.93;2.73;;;19.20;99.90;;;;;;486319;244;28840;-73
2022/06/06 09:19:05;;;;;;;2.60;2.50;;;19.10;99.90;;;;;;486443;244;29239;-73
2022/06/06 09:21:06;;;;;;;2.97;2.70;;;18.80;99.90;;;;;;486396;244;29326;-72
2022/06/06 09:23:07;;;;;;;3.13;2.93;;;18.70;99.90;;;;;;486447;244;29454;-74
2022/06/06 09:25:08;;;;;;;2.67;2.47;;;18.70;99.90;;;;;;486425;244;29383;-72
2022/06/06 09:27:10;;;;;;;2.60;2.50;;;18.70;99.90;;;;;;486399;243;29303;-73
2022/06/06 09:29:11;;;;;;;3.10;2.90;;;19.00;99.90;;;;;;486424;244;28882;-72
2022/06/06 09:31:12;;;;;;;2.87;2.60;;;19.30;99.90;;;;;;486424;244;28804;-73
2022/06/06 09:33:13;;;;;;;2.60;2.30;;;19.60;99.90;;;;;;486437;244;28824;-74
2022/06/06 09:35:15;;;;;;;3.23;2.73;;;19.90;99.90;;;;;;486416;244;29170;-74
2022/06/06 09:37:16;;;;;;;2.73;2.43;;;20.00;99.90;;;;;;486430;244;28954;-73
2022/06/06 09:39:17;;;;;;;2.40;2.20;;;19.90;99.90;;;;;;486450;244;28792;-73
2022/06/06 09:41:19;;;;;;;2.60;2.40;;;19.60;99.90;;;;;;486431;244;28899;-72
2022/06/06 09:43:20;;;;;;;3.00;2.70;;;19.50;99.90;;;;;;486340;244;28845;-73
2022/06/06 09:45:21;;;;;;;2.93;2.70;;;19.40;99.90;;;;;;486433;244;29266;-72
2022/06/06 09:47:22;;;;;;;2.93;2.70;;;19.20;99.90;;;;;;486420;244;29314;-72
2022/06/06 09:49:23;;;;;;;3.20;2.20;;;19.00;99.90;;;;;;486444;244;29411;-72
2022/06/06 09:51:25;;;;;;;3.00;2.70;;;18.90;99.90;;;;;;486443;244;29735;-72
2022/06/06 09:53:27;;;;;;;2.40;2.30;;;18.90;99.90;;;;;;486436;244;28830;-73
2022/06/06 10:00:06;;;;;;;2.70;2.60;;;19.50;99.90;;;;;;486446;244;29350;-73
2022/06/06 10:02:07;;;;;;;2.10;2.00;;;19.80;99.90;;;;;;486418;244;29286;-73
2022/06/06 10:04:08;;;;;;;1.80;1.70;;;19.90;99.90;;;;;;486434;244;29333;-73
2022/06/06 10:06:10;;;;;;;2.30;2.10;;;19.90;99.90;;;;;;486420;244;28833;-72
2022/06/06 10:08:11;;;;;;;2.30;2.20;;;19.60;99.90;;;;;;486437;244;28874;-72
2022/06/06 10:10:12;;;;;;;2.30;2.20;;;19.20;99.90;;;;;;486462;244;28843;-73
2022/06/06 10:12:13;;;;;;;2.37;2.27;;;19.30;99.90;;;;;;486452;244;28818;-72
2022/06/06 10:14:15;;;;;;;2.20;2.10;;;19.40;99.90;;;;;;486470;244;29170;-73
2022/06/06 10:16:16;;;;;;;2.60;2.13;;;19.30;99.90;;;;;;486445;244;29245;-74
2022/06/06 10:18:17;;;;;;;2.23;2.13;;;19.20;99.90;;;;;;486459;244;28815;-72
2022/06/06 10:20:18;;;;;;;2.20;2.10;;;19.20;99.90;;;;;;486448;244;28841;-73
2022/06/06 10:22:20;;;;;;;2.00;1.83;;;19.10;99.90;;;;;;486446;244;28921;-72
2022/06/06 10:24:21;;;;;;;2.00;1.90;;;19.20;99.90;;;;;;486448;244;29309;-72
2022/06/06 10:26:22;;;;;;;2.40;1.97;;;19.20;99.90;;;;;;486473;244;29327;-75
2022/06/06 10:28:24;;;;;;;2.33;1.60;;;19.30;99.90;;;;;;486473;244;29267;-72
2022/06/06 10:30:25;;;;;;;1.90;1.70;;;19.40;99.90;;;;;;486453;244;29198;-72
2022/06/06 10:32:26;;;;;;;2.67;1.73;;;19.50;99.90;;;;;;486451;244;28920;-72
2022/06/06 10:34:27;;;;;;;1.93;1.77;;;19.50;99.90;;;;;;486452;244;28837;-73
2022/06/06 10:36:29;;;;;;;1.80;1.70;;;19.40;99.90;;;;;;486463;244;28834;-75
2022/06/06 10:38:30;;;;;;;1.80;1.70;;;19.30;99.90;;;;;;486431;244;28818;-73
2022/06/06 10:40:31;;;;;;;2.77;1.73;;;19.20;99.90;;;;;;486466;244;28853;-72
2022/06/06 10:42:32;;;;;;;1.80;1.70;;;19.10;99.90;;;;;;486466;244;28805;-72
2022/06/06 10:44:34;;;;;;;2.40;1.80;;;19.10;99.90;;;;;;486461;244;28799;-72
2022/06/06 10:46:35;;;;;;;1.93;1.70;;;19.20;99.90;;;;;;486434;244;29345;-74
2022/06/06 10:48:36;;;;;;;2.07;1.93;;;19.40;99.90;;;;;;486448;244;29342;-73
2022/06/06 10:50:37;;;;;;;1.70;1.60;;;19.40;99.90;;;;;;486476;244;29289;-73
2022/06/06 10:52:39;;;;;;;3.10;1.80;;;19.50;99.90;;;;;;486483;244;30023;-72